createdAt,value
2018-12-24T00:03:47.430Z,7.10
2018-12-24T00:08:40.830Z,7.10
2018-12-24T00:13:34.280Z,7.10
2018-12-24T00:18:27.698Z,7.10
2018-12-24T00:23:22.500Z,7.10
2018-12-24T00:28:15.904Z,7.00
2018-12-24T00:33:09.329Z,7.00
2018-12-24T00:38:02.763Z,7.00
2018-12-24T00:42:56.210Z,7.10
2018-12-24T00:47:49.630Z,7.10
2018-12-24T00:52:43.058Z,6.90
2018-12-24T00:57:36.497Z,6.80
2018-12-24T01:02:29.941Z,6.80
2018-12-24T01:07:23.486Z,6.70
2018-12-24T01:12:24.351Z,6.70
2018-12-24T01:17:12.323Z,6.70
2018-12-24T01:22:05.708Z,6.70
2018-12-24T01:27:01.066Z,6.70
2018-12-24T01:31:54.623Z,6.70
2018-12-24T01:36:48.054Z,6.70
2018-12-24T01:41:41.462Z,6.80
2018-12-24T01:46:34.931Z,6.80
2018-12-24T01:51:28.343Z,6.80
2018-12-24T01:56:21.786Z,6.80
2018-12-24T02:01:15.227Z,6.80
2018-12-24T02:06:08.671Z,6.80
2018-12-24T02:11:02.115Z,7.00
2018-12-24T02:15:55.553Z,6.90
2018-12-24T02:20:48.971Z,6.90
2018-12-24T02:25:42.406Z,6.90
2018-12-24T02:30:35.871Z,6.90
2018-12-24T02:35:29.310Z,6.90
2018-12-24T02:40:22.824Z,6.90
2018-12-24T02:45:16.242Z,6.90
2018-12-24T02:50:11.067Z,6.90
2018-12-24T02:55:04.531Z,6.90
2018-12-24T02:59:57.993Z,7.00
2018-12-24T03:10:33.228Z,7.00
2018-12-24T03:15:26.096Z,7.00
2018-12-24T03:20:18.978Z,7.10
2018-12-24T03:25:11.824Z,7.10
2018-12-24T03:30:05.101Z,7.00
2018-12-24T03:34:57.949Z,7.10
2018-12-24T03:39:50.839Z,7.20
2018-12-24T03:44:43.695Z,7.20
2018-12-24T03:49:36.538Z,7.20
2018-12-24T03:54:30.503Z,7.20
2018-12-24T03:59:23.343Z,7.20
2018-12-24T04:04:16.247Z,7.20
2018-12-24T04:09:09.092Z,7.10
2018-12-24T04:14:01.982Z,7.10
2018-12-24T04:18:54.821Z,7.10
2018-12-24T04:23:47.709Z,7.10
2018-12-24T04:28:40.539Z,7.10
2018-12-24T04:33:33.428Z,7.10
2018-12-24T04:38:26.265Z,7.00
2018-12-24T04:43:19.169Z,7.10
2018-12-24T04:48:12.034Z,7.10
2018-12-24T04:53:04.942Z,7.10
2018-12-24T04:57:57.757Z,7.10
2018-12-24T05:02:50.637Z,7.10
2018-12-24T05:07:43.518Z,7.10
2018-12-24T05:12:36.373Z,7.10
2018-12-24T05:17:29.238Z,7.20
2018-12-24T05:22:22.123Z,7.30
2018-12-24T05:27:15.002Z,7.30
2018-12-24T05:32:07.862Z,7.20
2018-12-24T05:37:00.936Z,7.20
2018-12-24T05:41:53.792Z,7.20
2018-12-24T05:46:46.670Z,7.20
2018-12-24T05:51:39.515Z,7.20
2018-12-24T05:56:32.396Z,7.20
2018-12-24T06:01:25.290Z,7.20
2018-12-24T06:06:18.211Z,7.20
2018-12-24T06:11:11.077Z,7.30
2018-12-24T06:16:04.104Z,7.20
2018-12-24T06:20:56.974Z,7.30
2018-12-24T06:25:49.794Z,7.40
2018-12-24T06:30:42.689Z,7.30
2018-12-24T06:35:35.518Z,7.20
2018-12-24T06:40:28.399Z,7.20
2018-12-24T06:45:21.271Z,7.20
2018-12-24T06:50:15.741Z,7.20
2018-12-24T06:55:08.783Z,7.30
2018-12-24T07:00:01.673Z,7.30
2018-12-24T07:04:54.497Z,7.30
2018-12-24T07:09:47.386Z,7.30
2018-12-24T07:14:40.240Z,7.30
2018-12-24T07:19:33.172Z,7.30
2018-12-24T07:24:26.422Z,7.30
2018-12-24T07:29:19.306Z,7.30
2018-12-24T07:34:12.217Z,7.20
2018-12-24T07:39:06.615Z,7.20
2018-12-24T07:43:59.466Z,7.20
2018-12-24T07:48:52.324Z,7.30
2018-12-24T07:53:45.237Z,7.20
2018-12-24T07:58:39.469Z,7.20
2018-12-24T08:03:32.542Z,7.30
2018-12-24T08:08:25.400Z,7.30
2018-12-24T08:13:18.266Z,7.20
2018-12-24T08:18:11.097Z,7.30
2018-12-24T08:23:03.963Z,7.40
2018-12-24T08:27:57.823Z,7.40
2018-12-24T08:32:50.700Z,7.40
2018-12-24T08:37:43.550Z,7.40
2018-12-24T08:42:36.419Z,7.40
2018-12-24T08:47:29.288Z,7.40
2018-12-24T08:52:22.169Z,7.40
2018-12-24T08:57:15.016Z,7.50
2018-12-24T09:02:07.918Z,7.50
2018-12-24T09:07:00.784Z,7.50
2018-12-24T09:11:53.646Z,7.50
2018-12-24T09:16:46.536Z,7.50
2018-12-24T09:21:39.400Z,7.40
2018-12-24T09:26:32.271Z,7.40
2018-12-24T09:31:25.179Z,7.40
2018-12-24T09:36:18.059Z,7.40
2018-12-24T09:41:11.622Z,7.50
2018-12-24T09:46:04.477Z,7.50
2018-12-24T09:50:57.345Z,7.40
2018-12-24T09:55:50.332Z,7.40
2018-12-24T10:00:43.290Z,7.40
2018-12-24T10:05:36.172Z,7.40
2018-12-24T10:10:30.365Z,7.40
2018-12-24T10:15:23.232Z,7.40
2018-12-24T10:20:16.138Z,7.40
2018-12-24T10:25:11.315Z,7.50
2018-12-24T10:30:05.828Z,7.60
2018-12-24T10:34:58.671Z,7.50
2018-12-24T10:39:51.661Z,7.50
2018-12-24T10:44:44.524Z,7.50
2018-12-24T10:49:39.197Z,7.50
2018-12-24T10:54:32.025Z,7.30
2018-12-24T10:59:24.920Z,7.10
2018-12-24T11:04:17.774Z,6.80
2018-12-24T11:09:10.650Z,6.90
2018-12-24T11:14:03.533Z,7.00
2018-12-24T11:18:56.417Z,7.30
2018-12-24T11:23:49.315Z,7.40
2018-12-24T11:28:42.226Z,7.70
2018-12-24T11:33:35.131Z,7.90
2018-12-24T11:38:28.091Z,8.10
2018-12-24T11:43:20.995Z,7.80
2018-12-24T11:48:13.924Z,7.40
2018-12-24T11:53:06.845Z,7.10
2018-12-24T11:57:59.770Z,7.20
2018-12-24T12:02:52.631Z,7.40
2018-12-24T12:07:45.497Z,7.60
2018-12-24T12:12:38.358Z,7.70
2018-12-24T12:17:31.206Z,7.80
2018-12-24T12:22:25.164Z,7.90
2018-12-24T12:27:18.033Z,7.90
2018-12-24T12:32:10.865Z,7.90
2018-12-24T12:37:03.749Z,7.90
2018-12-24T12:41:56.617Z,7.80
2018-12-24T12:46:49.487Z,7.70
2018-12-24T12:51:42.372Z,7.70
2018-12-24T12:56:35.274Z,7.70
2018-12-24T13:01:28.153Z,7.50
2018-12-24T13:06:21.148Z,7.60
2018-12-24T13:11:14.017Z,7.90
2018-12-24T13:16:06.874Z,8.00
2018-12-24T13:20:59.753Z,8.10
2018-12-24T13:25:52.601Z,7.90
2018-12-24T13:30:45.597Z,7.80
2018-12-24T13:35:38.470Z,7.80
2018-12-24T13:40:31.348Z,7.90
2018-12-24T13:45:24.210Z,8.10
2018-12-24T13:50:17.150Z,8.00
2018-12-24T13:55:09.994Z,8.10
2018-12-24T14:00:03.047Z,7.80
2018-12-24T14:04:56.370Z,7.80
2018-12-24T14:09:49.236Z,7.50
2018-12-24T14:14:42.129Z,7.20
2018-12-24T14:19:34.980Z,6.90
2018-12-24T14:24:30.601Z,6.80
2018-12-24T14:29:25.026Z,6.70
2018-12-24T14:34:19.973Z,6.80
2018-12-24T14:39:13.261Z,6.70
2018-12-24T14:44:06.954Z,6.60
2018-12-24T14:48:59.806Z,6.40
2018-12-24T14:53:52.693Z,6.30
2018-12-24T14:58:45.659Z,6.20
2018-12-24T15:03:38.526Z,6.00
2018-12-24T15:08:31.378Z,5.90
2018-12-24T15:13:24.263Z,5.80
2018-12-24T15:18:17.134Z,5.60
2018-12-24T15:23:10.114Z,5.50
2018-12-24T15:28:02.962Z,5.50
2018-12-24T15:32:55.852Z,5.30
2018-12-24T15:37:48.707Z,5.30
2018-12-24T15:42:41.570Z,5.10
2018-12-24T15:47:36.252Z,5.10
2018-12-24T15:52:32.238Z,5.20
2018-12-24T15:57:25.107Z,6.70
2018-12-24T16:02:17.974Z,5.00
2018-12-24T16:07:12.711Z,5.10
2018-12-24T16:12:05.626Z,5.00
2018-12-24T16:16:58.513Z,5.00
2018-12-24T16:21:51.388Z,4.80
2018-12-24T16:26:44.268Z,4.80
2018-12-24T16:31:38.534Z,4.80
2018-12-24T16:36:31.483Z,4.80
2018-12-24T16:41:24.329Z,4.80
2018-12-24T16:46:17.173Z,4.70
2018-12-24T16:51:10.053Z,4.60
2018-12-24T16:56:02.926Z,4.20
2018-12-24T17:00:55.810Z,4.20
2018-12-24T17:05:48.690Z,4.30
2018-12-24T17:10:41.608Z,4.30
2018-12-24T17:15:34.426Z,4.30
2018-12-24T17:20:27.310Z,4.30
2018-12-24T17:25:20.172Z,4.30
2018-12-24T17:30:13.049Z,4.30
2018-12-24T17:35:05.929Z,4.40
2018-12-24T17:39:58.817Z,4.30
2018-12-24T17:44:51.684Z,4.10
2018-12-24T17:49:44.551Z,4.10
2018-12-24T17:54:37.478Z,3.90
2018-12-24T17:59:30.412Z,3.70
2018-12-24T18:04:23.290Z,3.50
2018-12-24T18:09:16.524Z,3.40
2018-12-24T18:14:09.372Z,3.30
2018-12-24T18:19:05.242Z,3.10
2018-12-24T18:23:58.136Z,3.00
2018-12-24T18:28:50.950Z,2.90
2018-12-24T18:33:43.814Z,2.90
2018-12-24T18:38:36.670Z,2.90
2018-12-24T18:43:29.546Z,2.80
2018-12-24T18:48:22.391Z,2.80
2018-12-24T18:53:15.237Z,2.80
2018-12-24T18:58:08.099Z,2.90
2018-12-24T19:03:00.988Z,2.90
2018-12-24T19:07:54.157Z,2.70
2018-12-24T19:12:47.018Z,2.80
2018-12-24T19:17:41.528Z,2.90
2018-12-24T19:22:35.393Z,2.90
2018-12-24T19:27:30.160Z,2.80
2018-12-24T19:32:23.046Z,2.70
2018-12-24T19:37:15.903Z,2.70
2018-12-24T19:42:08.757Z,2.70
2018-12-24T19:47:01.636Z,2.70
2018-12-24T19:51:54.511Z,2.50
2018-12-24T19:56:47.381Z,2.30
2018-12-24T20:01:40.232Z,2.30
2018-12-24T20:06:33.145Z,2.30
2018-12-24T20:11:26.344Z,2.20
2018-12-24T20:16:19.211Z,2.10
2018-12-24T20:21:12.051Z,2.10
2018-12-24T20:26:04.933Z,2.00
2018-12-24T20:30:57.798Z,2.10
2018-12-24T20:35:50.727Z,2.20
2018-12-24T20:40:43.617Z,2.30
2018-12-24T20:45:36.715Z,2.50
2018-12-24T20:50:29.573Z,2.60
2018-12-24T20:55:22.446Z,2.60
2018-12-24T21:00:15.344Z,2.60
2018-12-24T21:05:08.223Z,2.60
2018-12-24T21:10:01.114Z,2.70
2018-12-24T21:14:54.167Z,2.90
2018-12-24T21:19:47.067Z,3.00
2018-12-24T21:24:39.940Z,2.90
2018-12-24T21:29:32.870Z,3.00
2018-12-24T21:34:25.721Z,2.80
2018-12-24T21:39:18.630Z,2.70
2018-12-24T21:44:11.489Z,2.90
2018-12-24T21:49:04.329Z,2.90
2018-12-24T21:53:57.186Z,2.70
2018-12-24T21:58:50.039Z,2.70
2018-12-24T22:03:42.886Z,2.80
2018-12-24T22:08:35.795Z,2.80
2018-12-24T22:13:28.683Z,2.80
2018-12-24T22:18:21.576Z,2.90
2018-12-24T22:23:16.164Z,2.90
2018-12-24T22:28:09.045Z,2.90
2018-12-24T22:33:01.913Z,3.00
2018-12-24T22:37:54.773Z,2.90
2018-12-24T22:42:47.734Z,3.00
2018-12-24T22:47:40.613Z,3.10
2018-12-24T22:52:33.480Z,3.20
2018-12-24T22:57:26.353Z,3.20
2018-12-24T23:02:19.315Z,3.60
2018-12-24T23:07:12.211Z,3.60
2018-12-24T23:12:05.107Z,3.50
2018-12-24T23:16:59.240Z,3.30
2018-12-24T23:21:52.247Z,3.20
2018-12-24T23:26:46.229Z,3.20
2018-12-24T23:31:39.103Z,3.30
2018-12-24T23:36:32.007Z,3.50
2018-12-24T23:41:24.871Z,3.40
2018-12-24T23:46:17.736Z,3.30
2018-12-24T23:51:10.603Z,3.30
2018-12-24T23:56:03.438Z,3.30
